Spooner Summit
 (DRI) 7156 ft         Display wind rose
     Date    Time     Temp MxTp MnTp DewP  RH Spd Dir Gst
2021 Sep 19 07:57 pm    47   58   47   24  41   0   -   0
2021 Sep 19 07:46 pm    48   58   47   25  40   0   -   0
2021 Sep 19 07:36 pm    49   58   47   25  39   0   -   0
2021 Sep 19 07:25 pm    49   58   47   25  39   0   -   0
2021 Sep 19 07:15 pm    50   58   47   25  37   0   -   0
2021 Sep 19 07:04 pm    52   58   47   25  36   0   -   0
2021 Sep 19 06:54 pm    53   58   47   26  34   0   -   0
2021 Sep 19 06:41 pm    53   58   47   29  40   0   -   0
2021 Sep 19 06:27 pm    56   58   47   30  37   4 281   9
2021 Sep 19 06:16 pm    56   58   47   29  36   4 288   6
2021 Sep 19 06:06 pm    56   58   47   28  33   3 285   7
2021 Sep 19 05:55 pm    56   58   47   28  33   4 268   8
2021 Sep 19 05:45 pm    56   58   47   27  32   5 289   8
2021 Sep 19 05:34 pm    56   58   47   27  32   5 287  10
2021 Sep 19 05:24 pm    57   58   47   26  30   4 289   7
2021 Sep 19 05:13 pm    58   59   47   26  29   3 281   7
2021 Sep 19 05:03 pm    57   59   47   26  30   4 261   8
2021 Sep 19 04:52 pm    57   59   47   25  29   5 298   8
2021 Sep 19 04:42 pm    56   60   47   25  30   5 280  11
2021 Sep 19 04:31 pm    57   60   47   22  26   4 267   8
2021 Sep 19 04:21 pm    55   60   47   27  34   8 292  14
2021 Sep 19 04:10 pm    56   60   47   21  26   6 264  14
2021 Sep 19 04:00 pm    56   61   47   21  26   8 292  18
2021 Sep 19 03:49 pm    56   61   47   26  32   9 295  19
2021 Sep 19 03:39 pm    56   61   47   27  33   9 282  17
2021 Sep 19 03:28 pm    56   61   47   29  36   5 272  10
2021 Sep 19 03:18 pm    56   61   47   26  32   9 288  17
2021 Sep 19 03:07 pm    55   61   47   29  36  10 294  16
2021 Sep 19 02:57 pm    54   61   47   29  38   9 277  21
2021 Sep 19 02:46 pm    53   61   47   31  43  12 277  20
2021 Sep 19 02:36 pm    54   61   47   33  45   9 284  19
2021 Sep 19 02:25 pm    53   61   47   34  47   8 285  14
2021 Sep 19 02:14 pm    52   61   47   33  47   9 298  15
2021 Sep 19 02:04 pm    52   62   47   33  48   9 278  19
2021 Sep 19 01:53 pm    53   62   47   34  48  10 295  17
2021 Sep 19 01:42 pm    52   62   47   33  48   9 281  17
2021 Sep 19 01:32 pm    52   62   47   34  50  11 287  19
2021 Sep 19 01:21 pm    52   62   47   34  49  10 292  18
2021 Sep 19 01:11 pm    52   62   47   34  49  10 281  16
2021 Sep 19 01:00 pm    52   62   47   34  50  11 287  20
2021 Sep 19 12:50 pm    54   62   47   33  45   9 287  15
2021 Sep 19 12:39 pm    52   62   47   32  45  10 274  20
2021 Sep 19 12:29 pm    52   62   47   32  46  10 282  17
2021 Sep 19 12:18 pm    52   62   47   31  44  10 289  18
2021 Sep 19 12:08 pm    52   62   47   32  47   8 264  17
2021 Sep 19 11:57 am    52   62   47   33  48   9 278  17
2021 Sep 19 11:47 am    52   62   47   32  47   9 275  19
2021 Sep 19 11:36 am    51   62   47   34  53  13 285  25
2021 Sep 19 11:26 am    51   62   47   34  53  11 282  27
2021 Sep 19 11:15 am    51   62   47   33  50  10 277  24
2021 Sep 19 11:05 am    50   62   47   33  52  11 280  22
2021 Sep 19 10:54 am    50   62   47   32  50  11 285  22
2021 Sep 19 10:44 am    50   62   47   33  53  11 280  23
2021 Sep 19 10:33 am    50   62   47   33  51   6 265  14
2021 Sep 19 10:23 am    49   62   47   34  56   9 268  20
2021 Sep 19 10:12 am    50   62   47   31  48   7 278  17
2021 Sep 19 10:02 am    50   62   47   31  48  11 289  22
2021 Sep 19 09:51 am    50   62   47   32  50   6 265  15
2021 Sep 19 09:41 am    50   62   47   27  41  16 289  28
2021 Sep 19 09:30 am    50   62   47   34  53   7 263  14
2021 Sep 19 09:20 am    50   62   47   34  54  16 289  30
2021 Sep 19 09:09 am    50   62   47   35  56  15 296  25
2021 Sep 19 08:59 am    49   62   47   35  58  13 275  22
2021 Sep 19 08:46 am    49   62   47   35  58  16 284  31
2021 Sep 19 08:37 am    50   62   47   36  59  15 305  21
2021 Sep 19 08:26 am    50   62   47   36  57  13 296  21
2021 Sep 19 08:16 am    50   62   47   38  63   5 241  11
2021 Sep 19 08:05 am    50   62   47   37  62   7 257  18
2021 Sep 19 07:55 am    49   62   47   39  68   8 275  18
2021 Sep 19 07:44 am    49   62   47   37  63  11 291  19
2021 Sep 19 07:34 am    47   62   47   41  77   9 282  17
2021 Sep 19 07:23 am    48   62   47   40  74   9 278  22
2021 Sep 19 07:13 am    47   62   47   40  76  11 284  20
2021 Sep 19 07:02 am    47   62   47   40  79   7 268  16
2021 Sep 19 06:52 am    47   62   47   42  82  10 281  19
2021 Sep 19 06:41 am    47   62   47   43  85   8 271  17
2021 Sep 19 06:31 am    47   62   47   42  84   7 256  21
2021 Sep 19 06:20 am    47   62   47   42  81  10 281  24
2021 Sep 19 06:10 am    48   62   48   39  72  11 285  20
2021 Sep 19 05:59 am    48   62   48   38  69  13 296  22
2021 Sep 19 05:48 am    49   62   49   38  66  14 306  24
2021 Sep 19 05:38 am    49   62   49   38  65  15 292  21
2021 Sep 19 05:27 am    49   62   49   37  64  17 294  30
2021 Sep 19 05:16 am    49   62   49   37  63  17 289  27
2021 Sep 19 05:06 am    49   62   49   37  63  18 292  28
2021 Sep 19 04:55 am    49   62   49   37  63  20 292  30
2021 Sep 19 04:45 am    49   62   49   38  65  20 291  30
2021 Sep 19 04:34 am    49   62   49   37  63  21 298  30
2021 Sep 19 04:24 am    50   62   50   37  61  26 298  39
2021 Sep 19 04:13 am    50   62   50   37  62  19 294  34
2021 Sep 19 04:03 am    50   62   50   38  63  22 301  36
2021 Sep 19 03:52 am    50   62   50   39  64  19 301  30
2021 Sep 19 03:42 am    51   62   51   39  63  18 289  32
2021 Sep 19 03:32 am    51   62   51   39  63  19 294  31
2021 Sep 19 03:22 am    51   62   51   38  61  23 301  39
2021 Sep 19 03:10 am    51   62   51    -   -  17 299  33
2021 Sep 19 03:00 am    51   62   51   38  60  22 294  34
2021 Sep 19 02:49 am    51   62   51   38  60  20 305  34
2021 Sep 19 02:39 am    52   62   51   38  60  22 294  34
2021 Sep 19 02:28 am    52   62   51   38  59  23 298  43
2021 Sep 19 02:18 am    52   62   51   38  59  20 296  35
2021 Sep 19 02:07 am    52   62   51   37  57  13 292  24
2021 Sep 19 01:57 am    52   62   51   38  59  15 292  25
2021 Sep 19 01:46 am    52   62   51   37  58  10 298  16
2021 Sep 19 01:36 am    52   62   51   37  57  13 301  22
2021 Sep 19 01:25 am    52   62   51   37  56  10 299  20
2021 Sep 19 01:15 am    52   62   51   37  55  14 294  28
2021 Sep 19 01:04 am    53   62   51   37  56  13 288  28
2021 Sep 19 12:54 am    52   62   51   38  58  11 304  21
2021 Sep 19 12:41 am    52   62   51   37  57  10 294  18
2021 Sep 19 12:34 am    52   62   51   38  58  12 291  17
2021 Sep 19 12:24 am    52   62   51   38  58   5 246  17
2021 Sep 19 12:13 am    52   62   51   37  55  10 298  17
2021 Sep 19 12:03 am    52   62   51   37  55  10 278  20
2021 Sep 18 11:52 pm    52   62   51   35  52   6 274  13
2021 Sep 18 11:42 pm    52   62   51   33  48  10 298  16
2021 Sep 18 11:31 pm    52   62   51   32  46   9 295  16
2021 Sep 18 11:21 pm    52   62   51   32  45  11 285  16
2021 Sep 18 11:10 pm    52   62   51   30  43   8 289  13
2021 Sep 18 11:00 pm    52   62   51   29  40  11 304  17
2021 Sep 18 10:49 pm    52   62   51   29  41   8 278  16
2021 Sep 18 10:39 pm    52   62   51   27  38   9 288  16
2021 Sep 18 10:26 pm    52   62   51   27  38  10 289  16
2021 Sep 18 10:16 pm    52   62   51   27  37  11 289  17
2021 Sep 18 10:03 pm    52   62   51   27  37  12 299  18
2021 Sep 18 10:01 pm    52   62   51   27  37  10 291  18
2021 Sep 18 09:51 pm    52   62   51   27  38  10 294  17
2021 Sep 18 09:40 pm    52   62   51   27  37  14 288  23
2021 Sep 18 09:30 pm    52   62   51   28  40  12 295  18
2021 Sep 18 09:19 pm    52   62   51   31  44   8 258  18
2021 Sep 18 09:09 pm    52   62   51   31  44   5 261  13
2021 Sep 18 08:58 pm    52   62   51   29  40   9 288  16
2021 Sep 18 08:48 pm    52   62   51   29  41  10 270  22
2021 Sep 18 08:37 pm    52   62   51   32  47   9 271  19
2021 Sep 18 08:27 pm    51   62   51   34  51   7 271  14
2021 Sep 18 08:16 pm    51   62   51   33  50   6 263  12
2021 Sep 18 08:06 pm    51   62   51   33  49   6 253  15
2021 Sep 18 07:55 pm    52   62   52   34  51   7 261  15
2021 Sep 18 07:45 pm    53   62   53   32  45  12 294  22
2021 Sep 18 07:34 pm    53   62   53   30  40  16 296  25
2021 Sep 18 07:24 pm    53   62   53   30  41   9 284  21
2021 Sep 18 07:13 pm    54   62   53   31  41  13 294  18
2021 Sep 18 07:03 pm    54   62   53   30  39  13 288  21
2021 Sep 18 06:52 pm    55   62   53   28  36  16 292  28
2021 Sep 18 06:42 pm    55   62   53   29  36  16 295  30
2021 Sep 18 06:31 pm    56   63   53   29  36  12 291  25
2021 Sep 18 06:21 pm    56   63   53   28  34  17 291  27
2021 Sep 18 06:10 pm    57   64   53   29  35  11 278  22
2021 Sep 18 06:00 pm    57   64   53   29  34  15 287  25
2021 Sep 18 05:49 pm    58   64   53   30  34  12 291  20
2021 Sep 18 05:39 pm    58   65   53   30  34  11 289  18
2021 Sep 18 05:28 pm    58   65   53   31  35  12 282  25
2021 Sep 18 05:18 pm    59   66   53   29  32  15 291  29
2021 Sep 18 05:07 pm    59   66   53   29  32  13 291  21
2021 Sep 18 04:57 pm    59   66   53   30  33  13 284  21
2021 Sep 18 04:46 pm    60   66   53   30  32  13 289  24
2021 Sep 18 04:36 pm    59   67   53   29  31  14 289  26
2021 Sep 18 04:25 pm    60   67   53   27  29  16 295  27
2021 Sep 18 04:14 pm    60   67   53   28  29  13 298  26
2021 Sep 18 04:04 pm    61   68   53   27  28  12 296  22
2021 Sep 18 03:53 pm    60   68   53   28  29  16 295  28
2021 Sep 18 03:42 pm    61   68   53   28  28  15 296  28
2021 Sep 18 03:32 pm    61   68   53   28  28  15 289  25
2021 Sep 18 03:21 pm    61   68   53   28  28  12 277  21
2021 Sep 18 03:11 pm    61   68   53   28  28  16 292  26
2021 Sep 18 03:00 pm    61   68   53   25  26  15 294  30
2021 Sep 18 02:50 pm    61   68   53   26  26  16 294  26
2021 Sep 18 02:39 pm    61   68   53   25  25  20 298  33
2021 Sep 18 02:29 pm    61   68   53   26  26  19 298  34
2021 Sep 18 02:18 pm    61   68   53   26  26  19 298  31
2021 Sep 18 02:08 pm    62   68   53   26  25  16 301  25
2021 Sep 18 01:57 pm    62   68   53   26  26  17 296  28
2021 Sep 18 01:47 pm    62   68   53   26  25  13 288  22
2021 Sep 18 01:36 pm    62   68   53   26  25  15 298  24
2021 Sep 18 01:26 pm    61   68   53   26  26  15 287  27
2021 Sep 18 01:15 pm    61   68   53   26  26  18 285  29
2021 Sep 18 01:05 pm    61   68   53   26  26  16 301  26
2021 Sep 18 12:54 pm    61   68   53   24  24  20 296  31
2021 Sep 18 12:44 pm    61   68   53   24  24  16 292  30
2021 Sep 18 12:33 pm    61   68   53   25  25  17 296  27
2021 Sep 18 12:23 pm    62   68   53   26  26  11 285  26
2021 Sep 18 12:12 pm    61   68   53   27  27  11 294  20
2021 Sep 18 12:02 pm    61   68   53   26  26  17 302  29
2021 Sep 18 11:51 am    60   68   53   25  26  19 301  28
2021 Sep 18 11:41 am    59   68   53   23  25  21 294  34
2021 Sep 18 11:30 am    59   68   53   25  27  21 298  31
2021 Sep 18 11:20 am    60   68   53   25  26  15 292  25
2021 Sep 18 11:09 am    59   68   53   24  26  17 292  26
2021 Sep 18 10:59 am    60   68   53   24  25   -   -   -
2021 Sep 18 10:46 am    60   68   53   25  26  13 301  26
2021 Sep 18 10:37 am    59   68   53   23  25   9 289  18
2021 Sep 18 10:26 am    58   68   53   22  25  17 302  27
2021 Sep 18 10:16 am    59   68   53   19  21  12 302  22
2021 Sep 18 10:05 am    58   68   53   16  19  13 298  23
2021 Sep 18 09:55 am    58   68   53   13  17  16 309  26
2021 Sep 18 09:44 am    58   68   53   12  16  13 292  21
2021 Sep 18 09:34 am    58   68   53   10  15  12 304  21
2021 Sep 18 09:23 am    58   68   53   10  15  12 296  22
2021 Sep 18 09:13 am    58   68   53   10  15  10 302  22
2021 Sep 18 09:02 am    57   68   53   11  16   9 295  19
2021 Sep 18 08:52 am    56   68   53   12  17  11 288  24
2021 Sep 18 08:41 am    56   68   53   12  17  10 295  16
2021 Sep 18 08:31 am    56   68   53   13  18  11 296  17
2021 Sep 18 08:20 am    56   68   53   14  19   9 296  15
2021 Sep 18 08:10 am    55   68   53   14  19  10 294  18
2021 Sep 18 07:59 am    55   68   53   14  19  10 304  20
2021 Sep 18 07:49 am    55   68   51   14  19   9 296  18
2021 Sep 18 07:38 am    55   68   50   13  19  10 301  17
2021 Sep 18 07:28 am    54   68   50   14  20   8 302  14
2021 Sep 18 07:17 am    55   68   49   14  20  11 291  20
2021 Sep 18 07:07 am    54   68   48   14  20   8 294  13
2021 Sep 18 06:56 am    55   68   47   14  20  10 289  20
2021 Sep 18 06:46 am    54   68   47   16  22  12 301  22
2021 Sep 18 06:35 am    54   68   47   15  21  10 289  17
2021 Sep 18 06:25 am    54   68   47   15  21   9 292  15
2021 Sep 18 06:14 am    55   68   47   16  21  11 287  18
2021 Sep 18 06:04 am    55   68   47   16  21  11 289  18
2021 Sep 18 05:51 am    55   68   47   16  21  12 295  22
2021 Sep 18 05:46 am    55   68   47   14  20  10 292  18
2021 Sep 18 05:35 am    55   68   47   16  21   9 292  17
2021 Sep 18 05:25 am    55   68   47   15  20   8 288  17
2021 Sep 18 05:14 am    55   68   47   17  22  11 292  18
2021 Sep 18 05:04 am    55   68   47   17  22   9 284  21
2021 Sep 18 04:53 am    55   68   47   17  22  11 291  18
2021 Sep 18 04:43 am    55   68   47   16  21  12 299  22
2021 Sep 18 04:32 am    56   68   47   15  20  13 295  17
2021 Sep 18 04:22 am    56   68   47   15  20  10 291  18
2021 Sep 18 04:11 am    56   68   47   15  20  13 304  20
2021 Sep 18 04:01 am    56   68   47   18  23  12 299  18
2021 Sep 18 03:50 am    56   68   47   18  22  10 281  21
2021 Sep 18 03:40 am    56   68   47   20  25   8 287  16
2021 Sep 18 03:29 am    55   68   47   21  27   6 277  13
2021 Sep 18 03:19 am    55   68   47   24  30   8 295  13
2021 Sep 18 03:08 am    54   68   47   26  34   8 294  14
2021 Sep 18 02:58 am    54   68   47   27  35   3 253   7
2021 Sep 18 02:47 am    54   68   47   26  34   3 248  10
2021 Sep 18 02:37 am    55   68   47   25  32   8 291  12
2021 Sep 18 02:26 am    54   68   47   25  32   5 267  11
2021 Sep 18 02:16 am    53   68   47   30  41   3 261   9
2021 Sep 18 02:05 am    54   68   47   31  41   7 295  12
2021 Sep 18 01:55 am    54   68   47   30  39   9 298  16
2021 Sep 18 01:44 am    54   68   47   28  36   6 287  13
2021 Sep 18 01:34 am    55   68   47   28  36   7 295  13
2021 Sep 18 01:21 am    55   68   47   26  32   5 287  11
2021 Sep 18 01:15 am    55   68   47   23  28   7 289  13
2021 Sep 18 01:05 am    55   68   47   22  27   7 292  11
2021 Sep 18 12:54 am    55   68   47   22  27   7 295  13
2021 Sep 18 12:43 am    56   68   47   23  27   6 296  12
2021 Sep 18 12:32 am    56   68   47   22  26   8 291  11
2021 Sep 18 12:22 am    56   68   47   22  27   8 295  10
2021 Sep 18 12:11 am    55   68   47   23  29   4 292   8
2021 Sep 18 12:01 am    55   68   47   25  31   6 296   9
2021 Sep 17 11:50 pm    55   68   47   26  33   6 278  12
2021 Sep 17 11:40 pm    54   68   47   26  34   5 282  10
2021 Sep 17 11:29 pm    54   68   47   29  38   3 271   7
2021 Sep 17 11:19 pm    54   68   47   31  40   4 272   8
2021 Sep 17 11:08 pm    55   68   47   30  39   2 256   7
2021 Sep 17 10:58 pm    55   68   47   26  33   3 270   8
2021 Sep 17 10:47 pm    55   68   47   25  31   1 254   6
2021 Sep 17 10:37 pm    54   68   47   25  32   0   -   2
2021 Sep 17 10:26 pm    55   68   47   26  32   1 258   5
2021 Sep 17 10:16 pm    57   68   47   27  32   6 298   8
2021 Sep 17 10:03 pm    57   68   47   27  32   5 281  13
2021 Sep 17 09:58 pm    57   68   47   28  33   6 295  11
2021 Sep 17 09:48 pm    57   68   47   28  33   4 287   8
2021 Sep 17 09:37 pm    57   68   47   29  34   4 285   7
2021 Sep 17 09:27 pm    58   68   47   29  33   6 288   9
2021 Sep 17 09:16 pm    57   68   47   28  33   1 267   4
2021 Sep 17 09:06 pm    58   68   47   29  32   4 282  11
2021 Sep 17 08:55 pm    59   68   47   29  32   6 291  11
2021 Sep 17 08:45 pm    59   68   47   28  31   5 281   9
2021 Sep 17 08:34 pm    59   68   47   28  31   7 291  14
2021 Sep 17 08:24 pm    59   68   47   27  30   5 295   9
2021 Sep 17 08:13 pm    59   68   47   28  30   1 267   4
2021 Sep 17 08:03 pm    60   68   47   28  29   5 296   8
2021 Sep 17 07:52 pm    60   68   47   27  28   5 302   8
2021 Sep 17 07:42 pm    60   68   47   29  30   5 296   9
2021 Sep 17 07:31 pm    60   68   47   33  37   4 282  11
2021 Sep 17 07:21 pm    61   68   47   32  34   5 281  10
2021 Sep 17 07:10 pm    61   68   47   34  36   7 272  13
2021 Sep 17 07:00 pm    61   68   47   35  37   1 198   3